sensor_id;sensor_type;location;lat;lon;timestamp;temperature;humidity
31661;DHT22;18267;52.234;7.444;2023-02-28T00:00:36;3.00;99.90
31661;DHT22;18267;52.234;7.444;2023-02-28T00:03:02;3.10;99.90
31661;DHT22;18267;52.234;7.444;2023-02-28T00:05:28;3.20;99.90
31661;DHT22;18267;52.234;7.444;2023-02-28T00:07:54;3.10;99.90
31661;DHT22;18267;52.234;7.444;2023-02-28T00:10:24;3.20;99.90
31661;DHT22;18267;52.234;7.444;2023-02-28T00:12:50;3.20;99.90
31661;DHT22;18267;52.234;7.444;2023-02-28T00:15:16;3.20;99.90
31661;DHT22;18267;52.234;7.444;2023-02-28T00:17:42;3.20;99.90
31661;DHT22;18267;52.234;7.444;2023-02-28T00:20:09;3.20;99.90
31661;DHT22;18267;52.234;7.444;2023-02-28T00:22:38;3.30;99.90
31661;DHT22;18267;52.234;7.444;2023-02-28T00:25:05;3.40;99.90
31661;DHT22;18267;52.234;7.444;2023-02-28T00:27:32;3.40;99.90
31661;DHT22;18267;52.234;7.444;2023-02-28T00:29:58;3.40;99.90
31661;DHT22;18267;52.234;7.444;2023-02-28T00:32:24;3.40;99.90
31661;DHT22;18267;52.234;7.444;2023-02-28T00:34:49;3.40;99.90
31661;DHT22;18267;52.234;7.444;2023-02-28T00:37:15;3.40;99.90
31661;DHT22;18267;52.234;7.444;2023-02-28T00:39:41;3.50;99.90
31661;DHT22;18267;52.234;7.444;2023-02-28T00:42:07;3.50;99.90
31661;DHT22;18267;52.234;7.444;2023-02-28T00:44:33;3.60;99.90
31661;DHT22;18267;52.234;7.444;2023-02-28T00:46:59;3.60;99.90
31661;DHT22;18267;52.234;7.444;2023-02-28T00:49:26;3.40;99.90
31661;DHT22;18267;52.234;7.444;2023-02-28T00:51:53;3.10;99.90
31661;DHT22;18267;52.234;7.444;2023-02-28T00:54:20;3.10;99.90
31661;DHT22;18267;52.234;7.444;2023-02-28T00:56:45;3.10;99.90
31661;DHT22;18267;52.234;7.444;2023-02-28T00:59:13;3.20;99.90
31661;DHT22;18267;52.234;7.444;2023-02-28T01:01:38;3.30;99.90
31661;DHT22;18267;52.234;7.444;2023-02-28T01:04:04;3.30;99.90
31661;DHT22;18267;52.234;7.444;2023-02-28T01:06:30;3.30;99.90
31661;DHT22;18267;52.234;7.444;2023-02-28T01:08:57;3.30;99.90
31661;DHT22;18267;52.234;7.444;2023-02-28T01:11:23;3.40;99.90
31661;DHT22;18267;52.234;7.444;2023-02-28T01:13:50;3.30;99.90
31661;DHT22;18267;52.234;7.444;2023-02-28T01:16:15;3.40;99.90
31661;DHT22;18267;52.234;7.444;2023-02-28T01:18:41;3.40;99.90
31661;DHT22;18267;52.234;7.444;2023-02-28T01:21:09;3.50;99.90
31661;DHT22;18267;52.234;7.444;2023-02-28T01:23:35;3.50;99.90
31661;DHT22;18267;52.234;7.444;2023-02-28T01:26:05;3.50;99.90
31661;DHT22;18267;52.234;7.444;2023-02-28T01:28:31;3.60;99.90
31661;DHT22;18267;52.234;7.444;2023-02-28T01:30:57;3.70;99.90
31661;DHT22;18267;52.234;7.444;2023-02-28T01:33:23;3.70;99.90
31661;DHT22;18267;52.234;7.444;2023-02-28T01:35:49;3.70;99.90
31661;DHT22;18267;52.234;7.444;2023-02-28T01:38:15;3.70;99.90
31661;DHT22;18267;52.234;7.444;2023-02-28T01:40:40;3.60;99.90
31661;DHT22;18267;52.234;7.444;2023-02-28T01:43:27;3.60;99.90
31661;DHT22;18267;52.234;7.444;2023-02-28T01:45:53;3.40;99.90
31661;DHT22;18267;52.234;7.444;2023-02-28T01:48:24;3.40;99.90
31661;DHT22;18267;52.234;7.444;2023-02-28T01:50:52;3.40;99.90
31661;DHT22;18267;52.234;7.444;2023-02-28T01:53:24;3.40;99.90
31661;DHT22;18267;52.234;7.444;2023-02-28T01:55:52;3.50;99.90
31661;DHT22;18267;52.234;7.444;2023-02-28T01:58:19;3.50;99.90
31661;DHT22;18267;52.234;7.444;2023-02-28T02:00:44;3.60;99.90
31661;DHT22;18267;52.234;7.444;2023-02-28T02:03:13;3.50;99.90
31661;DHT22;18267;52.234;7.444;2023-02-28T02:05:40;3.50;99.90
31661;DHT22;18267;52.234;7.444;2023-02-28T02:08:11;3.40;99.90
31661;DHT22;18267;52.234;7.444;2023-02-28T02:10:51;3.40;99.90
31661;DHT22;18267;52.234;7.444;2023-02-28T02:13:34;3.40;99.90
31661;DHT22;18267;52.234;7.444;2023-02-28T02:16:34;3.30;99.90
31661;DHT22;18267;52.234;7.444;2023-02-28T02:19:15;3.30;99.90
31661;DHT22;18267;52.234;7.444;2023-02-28T02:35:52;3.20;99.90
31661;DHT22;18267;52.234;7.444;2023-02-28T02:38:42;3.20;99.90
31661;DHT22;18267;52.234;7.444;2023-02-28T02:41:22;3.20;99.90
31661;DHT22;18267;52.234;7.444;2023-02-28T02:47:08;3.30;99.90
31661;DHT22;18267;52.234;7.444;2023-02-28T02:49:36;3.20;99.90
31661;DHT22;18267;52.234;7.444;2023-02-28T02:52:09;3.20;99.90
31661;DHT22;18267;52.234;7.444;2023-02-28T02:54:38;3.30;99.90
31661;DHT22;18267;52.234;7.444;2023-02-28T02:57:10;3.10;99.90
31661;DHT22;18267;52.234;7.444;2023-02-28T02:59:39;3.10;99.90
31661;DHT22;18267;52.234;7.444;2023-02-28T03:02:08;3.10;99.90
31661;DHT22;18267;52.234;7.444;2023-02-28T03:04:41;3.10;99.90
31661;DHT22;18267;52.234;7.444;2023-02-28T03:07:07;3.10;99.90
31661;DHT22;18267;52.234;7.444;2023-02-28T03:09:34;3.20;99.90
31661;DHT22;18267;52.234;7.444;2023-02-28T03:12:02;3.20;99.90
31661;DHT22;18267;52.234;7.444;2023-02-28T03:14:43;3.10;99.90
31661;DHT22;18267;52.234;7.444;2023-02-28T03:20:01;3.00;99.90
31661;DHT22;18267;52.234;7.444;2023-02-28T03:22:45;2.90;99.90
31661;DHT22;18267;52.234;7.444;2023-02-28T03:25:31;2.90;99.90
31661;DHT22;18267;52.234;7.444;2023-02-28T03:30:54;2.80;99.90
31661;DHT22;18267;52.234;7.444;2023-02-28T03:33:30;2.80;99.90
31661;DHT22;18267;52.234;7.444;2023-02-28T03:35:58;2.80;99.90
31661;DHT22;18267;52.234;7.444;2023-02-28T03:38:35;2.90;99.90
31661;DHT22;18267;52.234;7.444;2023-02-28T03:41:14;2.90;99.90
31661;DHT22;18267;52.234;7.444;2023-02-28T03:43:45;2.90;99.90
31661;DHT22;18267;52.234;7.444;2023-02-28T03:46:16;2.90;99.90
31661;DHT22;18267;52.234;7.444;2023-02-28T03:48:54;2.90;99.90
31661;DHT22;18267;52.234;7.444;2023-02-28T03:51:22;2.90;99.90
31661;DHT22;18267;52.234;7.444;2023-02-28T03:54:05;2.90;99.90
31661;DHT22;18267;52.234;7.444;2023-02-28T03:56:37;2.80;99.90
31661;DHT22;18267;52.234;7.444;2023-02-28T03:59:15;2.80;99.90
31661;DHT22;18267;52.234;7.444;2023-02-28T04:01:45;2.80;99.90
31661;DHT22;18267;52.234;7.444;2023-02-28T04:04:12;2.80;99.90
31661;DHT22;18267;52.234;7.444;2023-02-28T04:06:39;2.80;99.90
31661;DHT22;18267;52.234;7.444;2023-02-28T04:09:06;2.70;99.90
31661;DHT22;18267;52.234;7.444;2023-02-28T04:11:37;2.70;99.90
31661;DHT22;18267;52.234;7.444;2023-02-28T04:14:04;2.60;99.90
31661;DHT22;18267;52.234;7.444;2023-02-28T04:16:32;2.50;99.90
31661;DHT22;18267;52.234;7.444;2023-02-28T04:18:57;2.60;99.90
31661;DHT22;18267;52.234;7.444;2023-02-28T04:21:49;2.60;99.90
31661;DHT22;18267;52.234;7.444;2023-02-28T04:24:23;2.50;99.90
31661;DHT22;18267;52.234;7.444;2023-02-28T04:26:51;2.50;99.90
31661;DHT22;18267;52.234;7.444;2023-02-28T04:29:35;2.50;99.90
31661;DHT22;18267;52.234;7.444;2023-02-28T04:32:02;2.60;99.90
31661;DHT22;18267;52.234;7.444;2023-02-28T04:34:30;2.60;99.90
31661;DHT22;18267;52.234;7.444;2023-02-28T04:36:56;2.60;99.90
31661;DHT22;18267;52.234;7.444;2023-02-28T04:39:23;2.80;99.90
31661;DHT22;18267;52.234;7.444;2023-02-28T04:41:50;2.90;99.90
31661;DHT22;18267;52.234;7.444;2023-02-28T04:44:16;2.90;99.90
31661;DHT22;18267;52.234;7.444;2023-02-28T04:46:42;2.70;99.90
31661;DHT22;18267;52.234;7.444;2023-02-28T04:49:12;2.70;99.90
31661;DHT22;18267;52.234;7.444;2023-02-28T04:51:38;2.60;99.90
31661;DHT22;18267;52.234;7.444;2023-02-28T04:54:04;2.70;99.90
31661;DHT22;18267;52.234;7.444;2023-02-28T04:56:30;2.70;99.90
31661;DHT22;18267;52.234;7.444;2023-02-28T04:58:56;2.70;99.90
31661;DHT22;18267;52.234;7.444;2023-02-28T05:01:23;2.60;99.90
31661;DHT22;18267;52.234;7.444;2023-02-28T05:03:50;2.60;99.90
31661;DHT22;18267;52.234;7.444;2023-02-28T05:06:16;2.50;99.90
31661;DHT22;18267;52.234;7.444;2023-02-28T05:08:42;2.50;99.90
31661;DHT22;18267;52.234;7.444;2023-02-28T05:11:17;2.40;99.90
31661;DHT22;18267;52.234;7.444;2023-02-28T05:13:43;2.40;99.90
31661;DHT22;18267;52.234;7.444;2023-02-28T05:16:09;2.30;99.90
31661;DHT22;18267;52.234;7.444;2023-02-28T05:18:35;2.30;99.90
31661;DHT22;18267;52.234;7.444;2023-02-28T05:21:01;2.30;99.90
31661;DHT22;18267;52.234;7.444;2023-02-28T05:23:27;2.30;99.90
31661;DHT22;18267;52.234;7.444;2023-02-28T05:25:53;2.20;99.90
31661;DHT22;18267;52.234;7.444;2023-02-28T05:28:20;2.20;99.90
31661;DHT22;18267;52.234;7.444;2023-02-28T05:30:46;2.20;99.90
31661;DHT22;18267;52.234;7.444;2023-02-28T05:33:13;2.10;99.90
31661;DHT22;18267;52.234;7.444;2023-02-28T05:35:40;2.10;99.90
31661;DHT22;18267;52.234;7.444;2023-02-28T05:38:06;2.10;99.90
31661;DHT22;18267;52.234;7.444;2023-02-28T05:40:32;2.00;99.90
31661;DHT22;18267;52.234;7.444;2023-02-28T05:42:58;2.10;99.90
31661;DHT22;18267;52.234;7.444;2023-02-28T05:45:23;2.00;99.90
31661;DHT22;18267;52.234;7.444;2023-02-28T05:47:52;2.10;99.90
31661;DHT22;18267;52.234;7.444;2023-02-28T05:50:18;2.00;99.90
31661;DHT22;18267;52.234;7.444;2023-02-28T05:52:43;2.00;99.90
31661;DHT22;18267;52.234;7.444;2023-02-28T05:55:10;1.90;99.90
31661;DHT22;18267;52.234;7.444;2023-02-28T05:57:38;2.00;99.90
31661;DHT22;18267;52.234;7.444;2023-02-28T06:00:11;1.90;99.90
31661;DHT22;18267;52.234;7.444;2023-02-28T06:02:44;1.70;99.90
31661;DHT22;18267;52.234;7.444;2023-02-28T06:05:16;1.70;99.90
31661;DHT22;18267;52.234;7.444;2023-02-28T06:07:43;1.70;99.90
31661;DHT22;18267;52.234;7.444;2023-02-28T06:10:10;1.60;99.90
31661;DHT22;18267;52.234;7.444;2023-02-28T06:12:36;1.70;99.90
31661;DHT22;18267;52.234;7.444;2023-02-28T06:15:02;1.70;99.90
31661;DHT22;18267;52.234;7.444;2023-02-28T06:17:28;1.70;99.90
31661;DHT22;18267;52.234;7.444;2023-02-28T06:19:53;1.80;99.90
31661;DHT22;18267;52.234;7.444;2023-02-28T06:22:19;2.00;99.90
31661;DHT22;18267;52.234;7.444;2023-02-28T06:24:44;2.10;99.90
31661;DHT22;18267;52.234;7.444;2023-02-28T06:27:10;2.10;99.90
31661;DHT22;18267;52.234;7.444;2023-02-28T06:29:36;2.10;99.90
31661;DHT22;18267;52.234;7.444;2023-02-28T06:32:05;2.10;99.90
31661;DHT22;18267;52.234;7.444;2023-02-28T06:34:31;1.80;99.90
31661;DHT22;18267;52.234;7.444;2023-02-28T06:36:57;1.90;99.90
31661;DHT22;18267;52.234;7.444;2023-02-28T06:39:28;2.00;99.90
31661;DHT22;18267;52.234;7.444;2023-02-28T06:41:54;1.90;99.90
31661;DHT22;18267;52.234;7.444;2023-02-28T06:44:20;2.00;99.90
31661;DHT22;18267;52.234;7.444;2023-02-28T06:46:45;2.00;99.90
31661;DHT22;18267;52.234;7.444;2023-02-28T06:49:11;2.10;99.90
31661;DHT22;18267;52.234;7.444;2023-02-28T06:51:39;2.00;99.90
31661;DHT22;18267;52.234;7.444;2023-02-28T06:54:07;2.10;99.90
31661;DHT22;18267;52.234;7.444;2023-02-28T06:56:37;2.10;99.90
31661;DHT22;18267;52.234;7.444;2023-02-28T06:59:04;2.10;99.90
31661;DHT22;18267;52.234;7.444;2023-02-28T07:01:30;1.90;99.90
31661;DHT22;18267;52.234;7.444;2023-02-28T07:03:57;1.60;99.90
31661;DHT22;18267;52.234;7.444;2023-02-28T07:06:23;1.70;99.90
31661;DHT22;18267;52.234;7.444;2023-02-28T07:08:50;1.80;99.90
31661;DHT22;18267;52.234;7.444;2023-02-28T07:11:17;2.00;99.90
31661;DHT22;18267;52.234;7.444;2023-02-28T07:13:43;2.10;99.90
31661;DHT22;18267;52.234;7.444;2023-02-28T07:16:11;2.20;99.90
31661;DHT22;18267;52.234;7.444;2023-02-28T07:18:37;2.20;99.90
31661;DHT22;18267;52.234;7.444;2023-02-28T07:21:05;2.30;99.90
31661;DHT22;18267;52.234;7.444;2023-02-28T07:23:31;2.40;99.90
31661;DHT22;18267;52.234;7.444;2023-02-28T07:25:57;2.40;99.90
31661;DHT22;18267;52.234;7.444;2023-02-28T07:28:23;2.50;99.90
31661;DHT22;18267;52.234;7.444;2023-02-28T07:30:49;2.40;99.90
31661;DHT22;18267;52.234;7.444;2023-02-28T07:33:15;2.60;99.90
31661;DHT22;18267;52.234;7.444;2023-02-28T07:35:41;2.70;99.90
31661;DHT22;18267;52.234;7.444;2023-02-28T07:38:07;2.70;99.90
31661;DHT22;18267;52.234;7.444;2023-02-28T07:40:36;2.70;99.90
31661;DHT22;18267;52.234;7.444;2023-02-28T07:43:03;2.70;99.90
31661;DHT22;18267;52.234;7.444;2023-02-28T07:45:29;2.80;99.90
31661;DHT22;18267;52.234;7.444;2023-02-28T07:47:57;2.70;99.90
31661;DHT22;18267;52.234;7.444;2023-02-28T07:50:23;2.70;99.90
31661;DHT22;18267;52.234;7.444;2023-02-28T07:52:48;2.90;99.90
31661;DHT22;18267;52.234;7.444;2023-02-28T07:55:14;3.00;99.90
31661;DHT22;18267;52.234;7.444;2023-02-28T07:57:41;2.90;99.90
31661;DHT22;18267;52.234;7.444;2023-02-28T08:00:09;2.80;99.90
31661;DHT22;18267;52.234;7.444;2023-02-28T08:02:37;2.80;99.90
31661;DHT22;18267;52.234;7.444;2023-02-28T08:05:04;2.70;99.90
31661;DHT22;18267;52.234;7.444;2023-02-28T08:07:30;2.70;99.90
31661;DHT22;18267;52.234;7.444;2023-02-28T08:09:56;2.70;99.90
31661;DHT22;18267;52.234;7.444;2023-02-28T08:12:21;2.80;99.90
31661;DHT22;18267;52.234;7.444;2023-02-28T08:14:47;2.90;99.90
31661;DHT22;18267;52.234;7.444;2023-02-28T08:17:13;3.00;99.90
31661;DHT22;18267;52.234;7.444;2023-02-28T08:19:38;3.00;99.90
31661;DHT22;18267;52.234;7.444;2023-02-28T08:22:04;3.10;99.90
31661;DHT22;18267;52.234;7.444;2023-02-28T08:24:30;3.20;99.90
31661;DHT22;18267;52.234;7.444;2023-02-28T08:26:56;3.20;99.90
31661;DHT22;18267;52.234;7.444;2023-02-28T08:29:22;3.10;99.90
31661;DHT22;18267;52.234;7.444;2023-02-28T08:31:48;3.10;99.90
31661;DHT22;18267;52.234;7.444;2023-02-28T08:34:15;3.00;99.90
31661;DHT22;18267;52.234;7.444;2023-02-28T08:36:42;3.10;99.90
31661;DHT22;18267;52.234;7.444;2023-02-28T08:39:10;3.00;99.90
31661;DHT22;18267;52.234;7.444;2023-02-28T08:41:36;3.00;99.90
31661;DHT22;18267;52.234;7.444;2023-02-28T08:44:02;3.10;99.90
31661;DHT22;18267;52.234;7.444;2023-02-28T08:46:28;3.20;99.90
31661;DHT22;18267;52.234;7.444;2023-02-28T08:48:55;3.40;99.90
31661;DHT22;18267;52.234;7.444;2023-02-28T08:51:22;3.40;99.90
31661;DHT22;18267;52.234;7.444;2023-02-28T08:53:55;3.60;99.90
31661;DHT22;18267;52.234;7.444;2023-02-28T08:56:23;3.60;99.90
31661;DHT22;18267;52.234;7.444;2023-02-28T08:58:49;3.80;99.90
31661;DHT22;18267;52.234;7.444;2023-02-28T09:01:20;3.80;99.90
31661;DHT22;18267;52.234;7.444;2023-02-28T09:03:49;3.90;99.90
31661;DHT22;18267;52.234;7.444;2023-02-28T09:06:16;3.90;99.90
31661;DHT22;18267;52.234;7.444;2023-02-28T09:08:42;4.10;99.90
31661;DHT22;18267;52.234;7.444;2023-02-28T09:11:08;4.10;99.90
31661;DHT22;18267;52.234;7.444;2023-02-28T09:13:34;4.00;99.90
31661;DHT22;18267;52.234;7.444;2023-02-28T09:16:01;3.90;99.90
31661;DHT22;18267;52.234;7.444;2023-02-28T09:18:28;3.80;99.90
31661;DHT22;18267;52.234;7.444;2023-02-28T09:20:53;3.90;99.90
31661;DHT22;18267;52.234;7.444;2023-02-28T09:23:20;3.90;99.20
31661;DHT22;18267;52.234;7.444;2023-02-28T09:25:48;4.00;99.70
31661;DHT22;18267;52.234;7.444;2023-02-28T09:28:14;4.10;99.90
31661;DHT22;18267;52.234;7.444;2023-02-28T09:30:45;4.20;99.00
31661;DHT22;18267;52.234;7.444;2023-02-28T09:33:12;4.30;98.80
31661;DHT22;18267;52.234;7.444;2023-02-28T09:35:38;4.30;98.00
31661;DHT22;18267;52.234;7.444;2023-02-28T09:38:05;4.30;98.60
31661;DHT22;18267;52.234;7.444;2023-02-28T09:40:36;4.30;99.30
31661;DHT22;18267;52.234;7.444;2023-02-28T09:43:02;4.40;97.30
31661;DHT22;18267;52.234;7.444;2023-02-28T09:45:30;4.40;94.80
31661;DHT22;18267;52.234;7.444;2023-02-28T09:48:01;4.40;95.20
31661;DHT22;18267;52.234;7.444;2023-02-28T09:50:35;4.50;93.50
31661;DHT22;18267;52.234;7.444;2023-02-28T09:53:26;4.60;92.20
31661;DHT22;18267;52.234;7.444;2023-02-28T09:55:55;4.60;93.10
31661;DHT22;18267;52.234;7.444;2023-02-28T09:58:33;4.60;92.60
31661;DHT22;18267;52.234;7.444;2023-02-28T10:01:11;4.60;92.50
31661;DHT22;18267;52.234;7.444;2023-02-28T10:03:43;4.70;91.80
31661;DHT22;18267;52.234;7.444;2023-02-28T10:06:20;4.80;91.20
31661;DHT22;18267;52.234;7.444;2023-02-28T10:09:06;4.90;91.60
31661;DHT22;18267;52.234;7.444;2023-02-28T10:11:36;4.80;92.00
31661;DHT22;18267;52.234;7.444;2023-02-28T10:14:11;4.80;91.40
31661;DHT22;18267;52.234;7.444;2023-02-28T10:16:42;4.90;90.80
31661;DHT22;18267;52.234;7.444;2023-02-28T10:24:46;5.00;90.10
31661;DHT22;18267;52.234;7.444;2023-02-28T10:27:18;5.10;90.80
31661;DHT22;18267;52.234;7.444;2023-02-28T10:29:46;5.10;91.10
31661;DHT22;18267;52.234;7.444;2023-02-28T10:32:18;5.20;90.10
31661;DHT22;18267;52.234;7.444;2023-02-28T10:34:44;5.20;90.70
31661;DHT22;18267;52.234;7.444;2023-02-28T10:37:13;5.20;90.30
31661;DHT22;18267;52.234;7.444;2023-02-28T10:39:42;5.20;90.40
31661;DHT22;18267;52.234;7.444;2023-02-28T10:42:29;5.20;89.40
31661;DHT22;18267;52.234;7.444;2023-02-28T10:45:21;5.20;89.70
31661;DHT22;18267;52.234;7.444;2023-02-28T10:48:03;5.00;90.40
31661;DHT22;18267;52.234;7.444;2023-02-28T10:56:12;5.20;90.20
31661;DHT22;18267;52.234;7.444;2023-02-28T11:03:57;5.30;89.40
31661;DHT22;18267;52.234;7.444;2023-02-28T11:06:29;5.30;90.20
31661;DHT22;18267;52.234;7.444;2023-02-28T11:08:59;5.30;90.10
31661;DHT22;18267;52.234;7.444;2023-02-28T11:11:28;5.40;90.50
31661;DHT22;18267;52.234;7.444;2023-02-28T11:14:02;5.30;90.20
31661;DHT22;18267;52.234;7.444;2023-02-28T11:16:37;5.40;90.30
31661;DHT22;18267;52.234;7.444;2023-02-28T11:19:05;5.40;90.00
31661;DHT22;18267;52.234;7.444;2023-02-28T11:21:36;5.40;90.10
31661;DHT22;18267;52.234;7.444;2023-02-28T11:24:18;5.40;89.80
31661;DHT22;18267;52.234;7.444;2023-02-28T11:26:48;5.50;90.10
31661;DHT22;18267;52.234;7.444;2023-02-28T11:29:23;5.30;90.20
31661;DHT22;18267;52.234;7.444;2023-02-28T11:34:34;5.40;90.90
31661;DHT22;18267;52.234;7.444;2023-02-28T11:37:01;5.40;91.00
31661;DHT22;18267;52.234;7.444;2023-02-28T11:39:31;5.40;91.30
31661;DHT22;18267;52.234;7.444;2023-02-28T11:42:01;5.40;91.20
31661;DHT22;18267;52.234;7.444;2023-02-28T11:59:11;5.60;92.10
31661;DHT22;18267;52.234;7.444;2023-02-28T12:04:44;5.70;91.00
31661;DHT22;18267;52.234;7.444;2023-02-28T12:10:26;5.80;90.60
31661;DHT22;18267;52.234;7.444;2023-02-28T12:13:38;5.70;90.00
31661;DHT22;18267;52.234;7.444;2023-02-28T12:16:26;5.70;90.30
31661;DHT22;18267;52.234;7.444;2023-02-28T12:19:10;5.70;90.10
31661;DHT22;18267;52.234;7.444;2023-02-28T12:27:22;5.70;90.20
31661;DHT22;18267;52.234;7.444;2023-02-28T12:29:54;5.70;90.70
31661;DHT22;18267;52.234;7.444;2023-02-28T12:32:27;5.70;90.30
31661;DHT22;18267;52.234;7.444;2023-02-28T12:35:00;5.80;90.90
31661;DHT22;18267;52.234;7.444;2023-02-28T12:37:43;5.90;90.20
31661;DHT22;18267;52.234;7.444;2023-02-28T12:40:14;5.90;90.50
31661;DHT22;18267;52.234;7.444;2023-02-28T12:42:49;5.80;90.70
31661;DHT22;18267;52.234;7.444;2023-02-28T12:45:19;5.70;91.00
31661;DHT22;18267;52.234;7.444;2023-02-28T12:47:50;5.80;89.90
31661;DHT22;18267;52.234;7.444;2023-02-28T12:50:18;6.00;89.70
31661;DHT22;18267;52.234;7.444;2023-02-28T12:53:01;6.00;88.60
31661;DHT22;18267;52.234;7.444;2023-02-28T13:01:04;5.70;89.90
31661;DHT22;18267;52.234;7.444;2023-02-28T13:03:50;5.90;89.10
31661;DHT22;18267;52.234;7.444;2023-02-28T13:09:21;5.90;87.40
31661;DHT22;18267;52.234;7.444;2023-02-28T13:11:54;5.80;89.10
31661;DHT22;18267;52.234;7.444;2023-02-28T13:14:25;5.90;88.80
31661;DHT22;18267;52.234;7.444;2023-02-28T13:19:38;6.00;89.20
31661;DHT22;18267;52.234;7.444;2023-02-28T13:22:05;6.00;88.40
31661;DHT22;18267;52.234;7.444;2023-02-28T13:24:42;6.00;88.00
31661;DHT22;18267;52.234;7.444;2023-02-28T13:29:38;6.00;89.20
31661;DHT22;18267;52.234;7.444;2023-02-28T13:34:36;6.00;86.70
31661;DHT22;18267;52.234;7.444;2023-02-28T13:42:35;6.00;88.30
31661;DHT22;18267;52.234;7.444;2023-02-28T13:47:48;6.10;88.60
31661;DHT22;18267;52.234;7.444;2023-02-28T13:53:04;6.00;89.20
31661;DHT22;18267;52.234;7.444;2023-02-28T14:01:39;6.00;90.00
31661;DHT22;18267;52.234;7.444;2023-02-28T14:06:53;6.00;90.30
31661;DHT22;18267;52.234;7.444;2023-02-28T14:09:36;6.00;90.60
31661;DHT22;18267;52.234;7.444;2023-02-28T14:17:56;6.00;90.50
31661;DHT22;18267;52.234;7.444;2023-02-28T14:20:27;6.00;91.00
31661;DHT22;18267;52.234;7.444;2023-02-28T14:23:16;6.00;90.90
31661;DHT22;18267;52.234;7.444;2023-02-28T14:28:51;6.10;90.60
31661;DHT22;18267;52.234;7.444;2023-02-28T14:31:29;6.10;90.80
31661;DHT22;18267;52.234;7.444;2023-02-28T14:36:36;6.10;90.70
31661;DHT22;18267;52.234;7.444;2023-02-28T14:39:10;6.00;91.10
31661;DHT22;18267;52.234;7.444;2023-02-28T14:41:39;6.00;91.40
31661;DHT22;18267;52.234;7.444;2023-02-28T14:46:42;5.90;91.10
31661;DHT22;18267;52.234;7.444;2023-02-28T14:49:21;6.00;91.00
31661;DHT22;18267;52.234;7.444;2023-02-28T14:51:49;5.90;91.40
31661;DHT22;18267;52.234;7.444;2023-02-28T14:54:18;6.00;91.30
31661;DHT22;18267;52.234;7.444;2023-02-28T14:56:49;6.00;91.60
31661;DHT22;18267;52.234;7.444;2023-02-28T14:59:35;6.00;91.30
31661;DHT22;18267;52.234;7.444;2023-02-28T15:02:23;6.00;91.20
31661;DHT22;18267;52.234;7.444;2023-02-28T15:05:02;6.00;91.60
31661;DHT22;18267;52.234;7.444;2023-02-28T15:07:30;6.00;91.60
31661;DHT22;18267;52.234;7.444;2023-02-28T15:13:00;6.10;91.10
31661;DHT22;18267;52.234;7.444;2023-02-28T15:21:01;6.00;90.90
31661;DHT22;18267;52.234;7.444;2023-02-28T15:23:28;6.00;90.90
31661;DHT22;18267;52.234;7.444;2023-02-28T15:25:54;6.00;90.40
31661;DHT22;18267;52.234;7.444;2023-02-28T15:28:22;6.00;90.40
31661;DHT22;18267;52.234;7.444;2023-02-28T15:31:00;6.00;90.90
31661;DHT22;18267;52.234;7.444;2023-02-28T15:33:29;5.90;91.10
31661;DHT22;18267;52.234;7.444;2023-02-28T15:36:14;5.90;91.50
31661;DHT22;18267;52.234;7.444;2023-02-28T15:38:42;5.90;91.40
31661;DHT22;18267;52.234;7.444;2023-02-28T15:41:26;5.90;91.60
31661;DHT22;18267;52.234;7.444;2023-02-28T15:44:18;5.90;91.50
31661;DHT22;18267;52.234;7.444;2023-02-28T15:47:06;5.90;91.40
31661;DHT22;18267;52.234;7.444;2023-02-28T15:49:40;6.00;92.00
31661;DHT22;18267;52.234;7.444;2023-02-28T15:52:14;6.00;91.80
31661;DHT22;18267;52.234;7.444;2023-02-28T15:54:41;6.00;91.90
31661;DHT22;18267;52.234;7.444;2023-02-28T15:57:14;5.90;92.10
31661;DHT22;18267;52.234;7.444;2023-02-28T15:59:50;6.00;91.70
31661;DHT22;18267;52.234;7.444;2023-02-28T16:02:29;5.90;91.60
31661;DHT22;18267;52.234;7.444;2023-02-28T16:07:34;5.80;92.40
31661;DHT22;18267;52.234;7.444;2023-02-28T16:10:00;5.70;92.90
31661;DHT22;18267;52.234;7.444;2023-02-28T16:12:30;5.70;93.00
31661;DHT22;18267;52.234;7.444;2023-02-28T16:14:58;5.80;92.80
31661;DHT22;18267;52.234;7.444;2023-02-28T16:17:26;5.70;92.90
31661;DHT22;18267;52.234;7.444;2023-02-28T16:19:53;5.70;93.00
31661;DHT22;18267;52.234;7.444;2023-02-28T16:22:19;5.70;93.00
31661;DHT22;18267;52.234;7.444;2023-02-28T16:24:45;5.60;93.10
31661;DHT22;18267;52.234;7.444;2023-02-28T16:27:25;5.60;93.50
31661;DHT22;18267;52.234;7.444;2023-02-28T16:29:53;5.60;93.20
31661;DHT22;18267;52.234;7.444;2023-02-28T16:32:19;5.60;93.20
31661;DHT22;18267;52.234;7.444;2023-02-28T16:34:44;5.60;93.70
31661;DHT22;18267;52.234;7.444;2023-02-28T16:37:15;5.50;94.00
31661;DHT22;18267;52.234;7.444;2023-02-28T16:39:42;5.50;94.00
31661;DHT22;18267;52.234;7.444;2023-02-28T16:42:21;5.60;94.20
31661;DHT22;18267;52.234;7.444;2023-02-28T16:44:48;5.50;94.40
31661;DHT22;18267;52.234;7.444;2023-02-28T16:47:14;5.40;94.60
31661;DHT22;18267;52.234;7.444;2023-02-28T16:49:41;5.40;94.60
31661;DHT22;18267;52.234;7.444;2023-02-28T16:52:09;5.30;94.90
31661;DHT22;18267;52.234;7.444;2023-02-28T16:54:37;5.30;94.90
31661;DHT22;18267;52.234;7.444;2023-02-28T16:57:04;5.20;95.10
31661;DHT22;18267;52.234;7.444;2023-02-28T16:59:31;5.20;95.00
31661;DHT22;18267;52.234;7.444;2023-02-28T17:01:57;5.20;95.10
31661;DHT22;18267;52.234;7.444;2023-02-28T17:04:24;5.20;95.30
31661;DHT22;18267;52.234;7.444;2023-02-28T17:06:49;5.20;95.30
31661;DHT22;18267;52.234;7.444;2023-02-28T17:09:21;5.10;95.30
31661;DHT22;18267;52.234;7.444;2023-02-28T17:11:49;5.20;95.40
31661;DHT22;18267;52.234;7.444;2023-02-28T17:14:15;5.10;95.30
31661;DHT22;18267;52.234;7.444;2023-02-28T17:16:41;5.10;95.40
31661;DHT22;18267;52.234;7.444;2023-02-28T17:19:16;5.00;95.50
31661;DHT22;18267;52.234;7.444;2023-02-28T17:21:43;4.90;95.70
31661;DHT22;18267;52.234;7.444;2023-02-28T17:24:10;4.90;96.00
31661;DHT22;18267;52.234;7.444;2023-02-28T17:26:39;4.80;96.10
31661;DHT22;18267;52.234;7.444;2023-02-28T17:29:16;4.70;96.30
31661;DHT22;18267;52.234;7.444;2023-02-28T17:31:41;4.70;96.40
31661;DHT22;18267;52.234;7.444;2023-02-28T17:34:07;4.70;96.40
31661;DHT22;18267;52.234;7.444;2023-02-28T17:36:33;4.70;96.30
31661;DHT22;18267;52.234;7.444;2023-02-28T17:39:00;4.70;96.50
31661;DHT22;18267;52.234;7.444;2023-02-28T17:41:26;4.70;96.60
31661;DHT22;18267;52.234;7.444;2023-02-28T17:43:52;4.70;96.70
31661;DHT22;18267;52.234;7.444;2023-02-28T17:46:23;4.60;96.70
31661;DHT22;18267;52.234;7.444;2023-02-28T17:48:50;4.60;96.90
31661;DHT22;18267;52.234;7.444;2023-02-28T17:51:20;4.60;96.80
31661;DHT22;18267;52.234;7.444;2023-02-28T17:53:47;4.60;96.90
31661;DHT22;18267;52.234;7.444;2023-02-28T17:56:25;4.60;96.80
31661;DHT22;18267;52.234;7.444;2023-02-28T17:58:53;4.60;96.90
31661;DHT22;18267;52.234;7.444;2023-02-28T18:01:20;4.70;96.90
31661;DHT22;18267;52.234;7.444;2023-02-28T18:03:46;4.50;97.00
31661;DHT22;18267;52.234;7.444;2023-02-28T18:06:28;4.50;97.20
31661;DHT22;18267;52.234;7.444;2023-02-28T18:08:55;4.50;97.40
31661;DHT22;18267;52.234;7.444;2023-02-28T18:11:22;4.30;97.50